createdAt,value
2022-12-15T00:00:21.244Z,55.60
2022-12-15T00:05:41.718Z,32.05
2022-12-15T00:11:02.304Z,42.38
2022-12-15T00:16:23.047Z,49.25
2022-12-15T00:21:43.523Z,44.28
2022-12-15T00:27:04.256Z,44.80
2022-12-15T00:32:24.726Z,37.95
2022-12-15T00:37:45.543Z,43.30
2022-12-15T00:42:47.815Z,37.65
2022-12-15T00:47:51.831Z,39.55
2022-12-15T00:53:12.191Z,45.78
2022-12-15T00:58:32.967Z,43.92
2022-12-15T01:03:53.653Z,43.28
2022-12-15T01:09:14.705Z,46.67
2022-12-15T01:14:35.416Z,38.05
2022-12-15T01:19:56.089Z,38.75
2022-12-15T01:24:58.133Z,44.45
2022-12-15T01:30:00.116Z,40.97
2022-12-15T01:35:02.559Z,41.60
2022-12-15T01:40:24.522Z,45.35
2022-12-15T01:50:35.908Z,36.38
2022-12-15T01:55:41.134Z,32.83
2022-12-15T02:06:01.941Z,34.28
2022-12-15T02:16:30.710Z,36.17
2022-12-15T02:21:45.382Z,38.80
2022-12-15T02:27:21.241Z,38.47
2022-12-15T02:32:30.601Z,45.15
2022-12-15T02:37:40.564Z,43.90
2022-12-15T02:42:52.263Z,38.88
2022-12-15T02:48:03.071Z,38.22
2022-12-15T02:53:29.343Z,45.53
2022-12-15T02:58:48.317Z,41.55
2022-12-15T03:03:52.111Z,36.13
2022-12-15T03:13:55.977Z,34.03
2022-12-15T03:18:57.937Z,27.73
2022-12-15T03:23:59.903Z,33.28
2022-12-15T03:29:02.022Z,38.05
2022-12-15T03:34:03.985Z,31.10
2022-12-15T03:39:06.474Z,32.72
2022-12-15T03:44:08.841Z,40.00
2022-12-15T03:49:10.810Z,32.90
2022-12-15T03:54:15.853Z,29.48
2022-12-15T03:59:17.894Z,15.05
2022-12-15T04:04:19.859Z,18.65
2022-12-15T04:09:21.976Z,36.17
2022-12-15T04:14:23.984Z,34.97
2022-12-15T04:19:44.541Z,42.90
2022-12-15T04:25:05.252Z,46.03
2022-12-15T04:30:26.280Z,31.73
2022-12-15T04:35:49.742Z,29.40
2022-12-15T04:41:10.545Z,39.13
2022-12-15T04:46:31.269Z,44.20
2022-12-15T04:51:52.719Z,39.13
2022-12-15T04:57:13.246Z,48.17
2022-12-15T05:02:34.008Z,52.45
2022-12-15T05:07:54.531Z,55.80
2022-12-15T05:13:22.178Z,47.28
2022-12-15T05:18:42.917Z,49.33
2022-12-15T05:24:03.537Z,31.05
2022-12-15T05:29:24.072Z,41.38
2022-12-15T05:34:34.792Z,22.02
2022-12-15T05:39:37.124Z,37.35
2022-12-15T05:44:39.233Z,42.53
2022-12-15T05:49:41.160Z,41.95
2022-12-15T05:54:43.167Z,36.08
2022-12-15T05:59:45.109Z,51.35
2022-12-15T06:04:47.182Z,47.08
2022-12-15T06:09:49.298Z,40.45
2022-12-15T06:14:51.319Z,61.58
2022-12-15T06:19:53.363Z,29.88
2022-12-15T06:24:55.378Z,46.72
2022-12-15T06:29:57.461Z,57.92
2022-12-15T06:34:59.431Z,47.20
2022-12-15T06:40:01.519Z,22.58
2022-12-15T06:45:04.083Z,52.10
2022-12-15T06:50:06.445Z,49.88
2022-12-15T06:55:08.825Z,45.33
2022-12-15T07:00:11.454Z,29.48
2022-12-15T07:05:13.835Z,23.92
2022-12-15T07:10:15.946Z,35.28
2022-12-15T07:15:18.059Z,43.28
2022-12-15T07:20:24.099Z,54.95
2022-12-15T07:25:29.065Z,16.67
2022-12-15T07:30:38.310Z,39.10
2022-12-15T07:35:40.900Z,31.67
2022-12-15T07:40:42.922Z,50.63
2022-12-15T07:45:51.169Z,42.00
2022-12-15T07:51:02.912Z,50.90
2022-12-15T07:56:10.519Z,60.53
2022-12-15T08:01:14.315Z,62.42
2022-12-15T08:06:16.489Z,84.22
2022-12-15T08:11:21.502Z,50.88
2022-12-15T08:16:23.723Z,59.22
2022-12-15T08:21:25.842Z,54.63
2022-12-15T08:26:30.586Z,49.03
2022-12-15T08:31:34.152Z,45.75
2022-12-15T08:36:37.744Z,43.63
2022-12-15T08:41:41.451Z,54.53
2022-12-15T08:51:45.480Z,41.20
2022-12-15T08:56:52.269Z,52.83
2022-12-15T09:01:54.374Z,37.78
2022-12-15T09:06:56.463Z,37.75
2022-12-15T09:11:58.531Z,51.47
2022-12-15T09:17:00.613Z,51.83
2022-12-15T09:22:03.191Z,45.78
2022-12-15T09:27:05.177Z,28.13
2022-12-15T09:32:13.860Z,27.50
2022-12-15T09:37:16.184Z,71.97
2022-12-15T09:42:32.269Z,16.08
2022-12-15T09:47:43.329Z,28.83
2022-12-15T09:52:50.662Z,30.35
2022-12-15T09:57:53.310Z,28.15
2022-12-15T10:03:14.735Z,23.13
2022-12-15T10:08:17.278Z,28.85
2022-12-15T10:13:32.728Z,30.60
2022-12-15T10:18:50.466Z,31.10
2022-12-15T10:23:54.622Z,14.40
2022-12-15T10:29:08.891Z,12.30
2022-12-15T10:34:22.957Z,38.35
2022-12-15T10:39:40.722Z,11.85
2022-12-15T10:44:50.631Z,29.70
2022-12-15T10:49:54.787Z,23.05
2022-12-15T10:54:56.895Z,28.95
2022-12-15T11:00:19.710Z,15.95
2022-12-15T11:05:22.492Z,25.98
2022-12-15T11:10:26.361Z,47.45
2022-12-15T11:15:50.733Z,26.00
2022-12-15T11:21:17.589Z,28.00
2022-12-15T11:26:40.878Z,11.27
2022-12-15T11:31:45.635Z,23.17
2022-12-15T11:37:02.791Z,23.77
2022-12-15T11:42:19.979Z,7.32
2022-12-15T11:47:52.651Z,11.60
2022-12-15T11:53:07.513Z,15.57
2022-12-15T11:58:27.176Z,17.40
2022-12-15T12:03:42.295Z,12.27
2022-12-15T12:08:58.104Z,14.20
2022-12-15T12:14:12.157Z,22.08
2022-12-15T12:19:27.996Z,10.93
2022-12-15T12:24:52.718Z,33.42
2022-12-15T12:30:16.667Z,7.07
2022-12-15T12:35:42.852Z,7.55
2022-12-15T12:41:03.106Z,29.45
2022-12-15T12:46:15.696Z,11.75
2022-12-15T12:51:29.124Z,13.65
2022-12-15T12:56:43.849Z,11.93
2022-12-15T13:01:47.556Z,5.32
2022-12-15T13:06:50.669Z,12.23
2022-12-15T13:11:57.123Z,43.03
2022-12-15T13:17:40.476Z,27.10
2022-12-15T13:22:42.715Z,58.83
2022-12-15T13:27:52.240Z,19.70
2022-12-15T13:38:00.111Z,9.35
2022-12-15T13:43:04.774Z,55.45
2022-12-15T13:48:32.199Z,55.40
2022-12-15T13:53:51.738Z,51.83
2022-12-15T13:59:01.435Z,56.05
2022-12-15T14:04:16.980Z,57.95
2022-12-15T14:09:50.535Z,63.03
2022-12-15T14:19:54.899Z,19.35
2022-12-15T14:25:14.897Z,11.23
2022-12-15T14:30:28.649Z,39.22
2022-12-15T14:35:40.583Z,43.95
2022-12-15T14:40:46.159Z,37.15
2022-12-15T14:45:56.203Z,48.78
2022-12-15T14:51:01.961Z,49.10
2022-12-15T14:56:33.419Z,45.95
2022-12-15T15:01:58.300Z,52.67
2022-12-15T15:07:07.047Z,28.98
2022-12-15T15:12:15.634Z,53.67
2022-12-15T15:17:39.710Z,39.10
2022-12-15T15:22:47.213Z,15.60
2022-12-15T15:27:49.956Z,51.08
2022-12-15T15:32:59.620Z,35.53
2022-12-15T15:38:15.054Z,68.85
2022-12-15T15:43:18.063Z,33.50
2022-12-15T15:48:26.464Z,8.18
2022-12-15T15:53:32.319Z,27.10
2022-12-15T15:58:35.541Z,10.20
2022-12-15T16:03:38.737Z,83.40
2022-12-15T16:08:41.011Z,31.08
2022-12-15T16:13:43.044Z,68.03
2022-12-15T16:18:45.137Z,67.65
2022-12-15T16:23:49.153Z,60.17
2022-12-15T16:33:53.296Z,70.03
2022-12-15T16:38:55.597Z,66.88
2022-12-15T16:43:59.138Z,86.63
2022-12-15T16:49:01.336Z,88.03
2022-12-15T16:54:04.185Z,84.35
2022-12-15T16:59:31.992Z,180.07
2022-12-15T17:04:29.783Z,124.47
2022-12-15T17:09:37.233Z,38.70
2022-12-15T17:14:39.456Z,96.57
2022-12-15T17:19:52.579Z,148.25
2022-12-15T17:35:09.077Z,77.95
2022-12-15T17:40:19.910Z,92.32
2022-12-15T17:45:24.680Z,156.13
2022-12-15T17:50:26.979Z,84.57
2022-12-15T17:55:34.771Z,179.68
2022-12-15T18:00:38.664Z,151.10
2022-12-15T18:05:41.227Z,116.35
2022-12-15T18:10:44.724Z,135.80
2022-12-15T18:15:48.650Z,142.25
2022-12-15T18:20:55.895Z,105.65
2022-12-15T18:26:02.882Z,55.35
2022-12-15T18:31:19.482Z,32.50
2022-12-15T18:36:22.736Z,63.13
2022-12-15T18:41:26.443Z,30.90
2022-12-15T18:46:29.727Z,27.67
2022-12-15T18:51:34.547Z,72.43
2022-12-15T18:56:37.622Z,86.25
2022-12-15T19:01:40.832Z,47.13
2022-12-15T19:06:45.325Z,54.63
2022-12-15T19:12:07.597Z,33.17
2022-12-15T19:17:34.569Z,17.23
2022-12-15T19:22:37.160Z,70.97
2022-12-15T19:27:39.849Z,69.97
2022-12-15T19:32:42.762Z,106.00
2022-12-15T19:37:48.222Z,46.53
2022-12-15T19:42:55.645Z,70.68
2022-12-15T19:47:59.852Z,56.97
2022-12-15T19:53:07.722Z,19.50
2022-12-15T19:58:26.930Z,39.03
2022-12-15T20:03:32.726Z,92.38
2022-12-15T20:08:39.974Z,58.60
2022-12-15T20:13:42.767Z,23.77
2022-12-15T20:18:50.526Z,27.90
2022-12-15T20:24:00.718Z,9.20
2022-12-15T20:29:04.421Z,22.35
2022-12-15T20:39:29.912Z,13.63
2022-12-15T20:44:32.165Z,41.42
2022-12-15T20:49:34.429Z,55.78
2022-12-15T20:54:36.611Z,12.40
2022-12-15T20:59:38.989Z,7.43
2022-12-15T21:04:42.225Z,48.20
2022-12-15T21:09:44.590Z,57.70
2022-12-15T21:14:48.058Z,60.05
2022-12-15T21:19:50.748Z,65.50
2022-12-15T21:29:57.310Z,60.03
2022-12-15T21:34:59.411Z,52.30
2022-12-15T21:40:02.014Z,53.08
2022-12-15T21:45:17.083Z,72.38
2022-12-15T21:50:19.970Z,62.97
2022-12-15T21:55:24.304Z,48.55
2022-12-15T22:00:26.445Z,46.58
2022-12-15T22:05:32.856Z,43.75
2022-12-15T22:10:34.952Z,21.98
2022-12-15T22:15:37.011Z,32.10
2022-12-15T22:20:39.191Z,6.53
2022-12-15T22:25:41.253Z,17.15
2022-12-15T22:30:43.278Z,36.60
2022-12-15T22:35:45.317Z,15.38
2022-12-15T22:40:57.404Z,6.82
2022-12-15T22:46:01.116Z,31.55
2022-12-15T22:51:05.374Z,53.80
2022-12-15T22:56:31.557Z,22.10
2022-12-15T23:01:33.908Z,79.45
2022-12-15T23:06:35.904Z,71.32
2022-12-15T23:11:37.922Z,51.88
2022-12-15T23:16:40.531Z,19.42
2022-12-15T23:21:42.582Z,93.57
2022-12-15T23:26:44.572Z,87.82
2022-12-15T23:31:46.614Z,18.58
2022-12-15T23:36:48.617Z,85.18
2022-12-15T23:41:50.605Z,81.43
2022-12-15T23:46:52.678Z,100.85
2022-12-15T23:51:54.723Z,78.25
2022-12-15T23:56:57.122Z,46.45
